sensor_id;sensor_type;location;lat;lon;timestamp;pressure;altitude;pressure_sealevel;temperature;humidity
40592;BME280;26301;42.832;23.918;2024-03-06T00:02:03;92934.81;;;5.32;100.00
40592;BME280;26301;42.832;23.918;2024-03-06T00:04:29;92941.06;;;5.42;100.00
40592;BME280;26301;42.832;23.918;2024-03-06T00:06:55;92942.25;;;5.40;100.00
40592;BME280;26301;42.832;23.918;2024-03-06T00:09:21;92939.75;;;5.33;100.00
40592;BME280;26301;42.832;23.918;2024-03-06T00:11:46;92944.09;;;5.33;100.00
40592;BME280;26301;42.832;23.918;2024-03-06T00:14:12;92932.69;;;5.28;100.00
40592;BME280;26301;42.832;23.918;2024-03-06T00:16:38;92948.41;;;5.32;100.00
40592;BME280;26301;42.832;23.918;2024-03-06T00:19:04;92940.94;;;5.31;100.00
40592;BME280;26301;42.832;23.918;2024-03-06T00:21:29;92941.31;;;5.34;100.00
40592;BME280;26301;42.832;23.918;2024-03-06T00:23:55;92935.59;;;5.32;100.00
40592;BME280;26301;42.832;23.918;2024-03-06T00:26:21;92940.53;;;5.34;100.00
40592;BME280;26301;42.832;23.918;2024-03-06T00:28:47;92945.00;;;5.38;100.00
40592;BME280;26301;42.832;23.918;2024-03-06T00:31:12;92936.19;;;5.34;100.00
40592;BME280;26301;42.832;23.918;2024-03-06T00:33:38;92927.72;;;5.34;100.00
40592;BME280;26301;42.832;23.918;2024-03-06T00:36:04;92941.63;;;5.44;100.00
40592;BME280;26301;42.832;23.918;2024-03-06T00:38:29;92950.13;;;5.45;100.00
40592;BME280;26301;42.832;23.918;2024-03-06T00:40:55;92950.66;;;5.47;100.00
40592;BME280;26301;42.832;23.918;2024-03-06T00:43:22;92942.00;;;5.48;100.00
40592;BME280;26301;42.832;23.918;2024-03-06T00:45:48;92940.81;;;5.50;100.00
40592;BME280;26301;42.832;23.918;2024-03-06T00:48:13;92941.59;;;5.51;100.00
40592;BME280;26301;42.832;23.918;2024-03-06T00:50:39;92941.19;;;5.54;100.00
40592;BME280;26301;42.832;23.918;2024-03-06T00:53:06;92948.75;;;5.67;100.00
40592;BME280;26301;42.832;23.918;2024-03-06T00:55:31;92937.44;;;5.50;100.00
40592;BME280;26301;42.832;23.918;2024-03-06T00:57:57;92924.81;;;5.30;100.00
40592;BME280;26301;42.832;23.918;2024-03-06T01:00:23;92945.59;;;5.40;100.00
40592;BME280;26301;42.832;23.918;2024-03-06T01:02:48;92937.97;;;5.34;100.00
40592;BME280;26301;42.832;23.918;2024-03-06T01:05:14;92944.47;;;5.36;100.00
40592;BME280;26301;42.832;23.918;2024-03-06T01:07:40;92958.22;;;5.42;100.00
40592;BME280;26301;42.832;23.918;2024-03-06T01:10:06;92945.41;;;5.42;100.00
40592;BME280;26301;42.832;23.918;2024-03-06T01:12:32;92967.03;;;5.46;100.00
40592;BME280;26301;42.832;23.918;2024-03-06T01:14:57;92946.00;;;5.37;100.00
40592;BME280;26301;42.832;23.918;2024-03-06T01:17:23;92947.22;;;5.35;100.00
40592;BME280;26301;42.832;23.918;2024-03-06T01:19:49;92966.25;;;5.45;100.00
40592;BME280;26301;42.832;23.918;2024-03-06T01:22:15;92968.81;;;5.45;100.00
40592;BME280;26301;42.832;23.918;2024-03-06T01:24:40;92954.69;;;5.36;100.00
40592;BME280;26301;42.832;23.918;2024-03-06T01:27:06;92950.00;;;5.33;100.00
40592;BME280;26301;42.832;23.918;2024-03-06T01:29:31;92971.81;;;5.42;100.00
40592;BME280;26301;42.832;23.918;2024-03-06T01:31:58;92956.31;;;5.31;100.00
40592;BME280;26301;42.832;23.918;2024-03-06T01:34:24;92958.41;;;5.40;100.00
40592;BME280;26301;42.832;23.918;2024-03-06T01:36:50;92950.97;;;5.32;100.00
40592;BME280;26301;42.832;23.918;2024-03-06T01:39:15;92967.47;;;5.43;100.00
40592;BME280;26301;42.832;23.918;2024-03-06T01:41:51;92955.13;;;5.33;100.00
40592;BME280;26301;42.832;23.918;2024-03-06T01:44:17;92965.25;;;5.46;100.00
40592;BME280;26301;42.832;23.918;2024-03-06T01:46:44;92964.25;;;5.47;100.00
40592;BME280;26301;42.832;23.918;2024-03-06T01:49:11;92960.13;;;5.46;100.00
40592;BME280;26301;42.832;23.918;2024-03-06T01:51:36;92964.06;;;5.49;100.00
40592;BME280;26301;42.832;23.918;2024-03-06T01:54:03;92958.94;;;5.49;100.00
40592;BME280;26301;42.832;23.918;2024-03-06T01:56:33;92938.69;;;5.41;100.00
40592;BME280;26301;42.832;23.918;2024-03-06T01:59:01;92946.13;;;5.49;100.00
40592;BME280;26301;42.832;23.918;2024-03-06T02:01:27;92932.00;;;5.40;100.00
40592;BME280;26301;42.832;23.918;2024-03-06T02:03:54;92955.78;;;5.54;100.00
40592;BME280;26301;42.832;23.918;2024-03-06T02:06:21;92953.75;;;5.56;100.00
40592;BME280;26301;42.832;23.918;2024-03-06T02:08:46;92940.66;;;5.45;100.00
40592;BME280;26301;42.832;23.918;2024-03-06T02:11:12;92943.75;;;5.47;100.00
40592;BME280;26301;42.832;23.918;2024-03-06T02:13:41;92945.34;;;5.48;100.00
40592;BME280;26301;42.832;23.918;2024-03-06T02:16:07;92954.19;;;5.53;100.00
40592;BME280;26301;42.832;23.918;2024-03-06T02:18:33;92936.72;;;5.43;100.00
40592;BME280;26301;42.832;23.918;2024-03-06T02:20:59;92952.78;;;5.57;100.00
40592;BME280;26301;42.832;23.918;2024-03-06T02:23:24;92944.81;;;5.40;100.00
40592;BME280;26301;42.832;23.918;2024-03-06T02:25:50;92955.47;;;5.37;100.00
40592;BME280;26301;42.832;23.918;2024-03-06T02:28:16;92954.13;;;5.34;100.00
40592;BME280;26301;42.832;23.918;2024-03-06T02:30:43;92944.91;;;5.26;100.00
40592;BME280;26301;42.832;23.918;2024-03-06T02:33:08;92944.28;;;5.31;100.00
40592;BME280;26301;42.832;23.918;2024-03-06T02:35:37;92956.09;;;5.32;100.00
40592;BME280;26301;42.832;23.918;2024-03-06T02:38:05;92953.16;;;5.28;100.00
40592;BME280;26301;42.832;23.918;2024-03-06T02:40:31;92948.44;;;5.25;100.00
40592;BME280;26301;42.832;23.918;2024-03-06T02:42:57;92938.31;;;5.12;100.00
40592;BME280;26301;42.832;23.918;2024-03-06T02:45:22;92941.69;;;5.06;100.00
40592;BME280;26301;42.832;23.918;2024-03-06T02:47:48;92945.63;;;5.02;100.00
40592;BME280;26301;42.832;23.918;2024-03-06T02:50:13;92960.16;;;5.15;100.00
40592;BME280;26301;42.832;23.918;2024-03-06T02:52:39;92968.44;;;5.10;100.00
40592;BME280;26301;42.832;23.918;2024-03-06T02:55:05;92961.41;;;5.06;100.00
40592;BME280;26301;42.832;23.918;2024-03-06T02:57:31;92959.84;;;4.98;100.00
40592;BME280;26301;42.832;23.918;2024-03-06T02:59:57;92964.97;;;4.98;100.00
40592;BME280;26301;42.832;23.918;2024-03-06T03:02:23;92941.03;;;4.79;100.00
40592;BME280;26301;42.832;23.918;2024-03-06T03:04:50;92963.81;;;4.87;100.00
40592;BME280;26301;42.832;23.918;2024-03-06T03:07:17;92951.69;;;4.76;100.00
40592;BME280;26301;42.832;23.918;2024-03-06T03:09:44;92951.91;;;4.68;100.00
40592;BME280;26301;42.832;23.918;2024-03-06T03:12:10;92949.75;;;4.65;100.00
40592;BME280;26301;42.832;23.918;2024-03-06T03:14:37;92955.47;;;4.67;100.00
40592;BME280;26301;42.832;23.918;2024-03-06T03:17:02;92956.84;;;4.63;100.00
40592;BME280;26301;42.832;23.918;2024-03-06T03:19:28;92979.28;;;4.67;100.00
40592;BME280;26301;42.832;23.918;2024-03-06T03:21:54;92971.81;;;4.59;100.00
40592;BME280;26301;42.832;23.918;2024-03-06T03:24:20;92977.53;;;4.61;100.00
40592;BME280;26301;42.832;23.918;2024-03-06T03:26:49;92963.19;;;4.47;100.00
40592;BME280;26301;42.832;23.918;2024-03-06T03:29:15;92986.38;;;4.58;100.00
40592;BME280;26301;42.832;23.918;2024-03-06T03:31:41;92974.59;;;4.51;100.00
40592;BME280;26301;42.832;23.918;2024-03-06T03:34:07;92976.00;;;4.47;100.00
40592;BME280;26301;42.832;23.918;2024-03-06T03:36:34;92982.66;;;4.48;100.00
40592;BME280;26301;42.832;23.918;2024-03-06T03:39:00;92972.69;;;4.40;100.00
40592;BME280;26301;42.832;23.918;2024-03-06T03:41:25;92979.94;;;4.36;100.00
40592;BME280;26301;42.832;23.918;2024-03-06T03:43:51;92976.22;;;4.32;100.00
40592;BME280;26301;42.832;23.918;2024-03-06T03:46:16;92953.88;;;4.01;100.00
40592;BME280;26301;42.832;23.918;2024-03-06T03:48:42;92983.75;;;4.13;100.00
40592;BME280;26301;42.832;23.918;2024-03-06T03:51:08;92980.19;;;4.08;100.00
40592;BME280;26301;42.832;23.918;2024-03-06T03:53:33;92985.94;;;4.03;100.00
40592;BME280;26301;42.832;23.918;2024-03-06T03:56:00;92974.34;;;3.94;100.00
40592;BME280;26301;42.832;23.918;2024-03-06T03:58:26;92986.31;;;3.94;100.00
40592;BME280;26301;42.832;23.918;2024-03-06T04:00:51;92992.22;;;3.81;100.00
40592;BME280;26301;42.832;23.918;2024-03-06T04:03:19;92972.19;;;3.64;100.00
40592;BME280;26301;42.832;23.918;2024-03-06T04:05:46;92983.75;;;3.60;100.00
40592;BME280;26301;42.832;23.918;2024-03-06T04:08:12;92996.34;;;3.55;100.00
40592;BME280;26301;42.832;23.918;2024-03-06T04:10:38;92993.97;;;3.54;100.00
40592;BME280;26301;42.832;23.918;2024-03-06T04:13:03;92979.63;;;3.33;100.00
40592;BME280;26301;42.832;23.918;2024-03-06T04:15:29;92999.25;;;3.46;100.00
40592;BME280;26301;42.832;23.918;2024-03-06T04:17:55;92985.91;;;3.37;100.00
40592;BME280;26301;42.832;23.918;2024-03-06T04:20:20;92994.53;;;3.42;100.00
40592;BME280;26301;42.832;23.918;2024-03-06T04:22:46;92993.38;;;3.32;100.00
40592;BME280;26301;42.832;23.918;2024-03-06T04:25:13;92997.31;;;3.34;100.00
40592;BME280;26301;42.832;23.918;2024-03-06T04:27:39;93000.97;;;3.18;100.00
40592;BME280;26301;42.832;23.918;2024-03-06T04:30:05;93004.06;;;2.94;100.00
40592;BME280;26301;42.832;23.918;2024-03-06T04:32:31;92982.41;;;2.70;100.00
40592;BME280;26301;42.832;23.918;2024-03-06T04:34:56;92992.81;;;2.75;100.00
40592;BME280;26301;42.832;23.918;2024-03-06T04:37:22;92998.69;;;2.75;100.00
40592;BME280;26301;42.832;23.918;2024-03-06T04:39:48;92975.88;;;2.54;100.00
40592;BME280;26301;42.832;23.918;2024-03-06T04:42:13;92996.06;;;2.56;100.00
40592;BME280;26301;42.832;23.918;2024-03-06T04:44:39;93013.59;;;2.65;100.00
40592;BME280;26301;42.832;23.918;2024-03-06T04:47:04;92998.59;;;2.56;100.00
40592;BME280;26301;42.832;23.918;2024-03-06T04:49:33;93012.56;;;2.60;100.00
40592;BME280;26301;42.832;23.918;2024-03-06T04:52:02;92994.22;;;2.36;100.00
40592;BME280;26301;42.832;23.918;2024-03-06T04:54:28;93006.19;;;2.36;100.00
40592;BME280;26301;42.832;23.918;2024-03-06T04:56:54;93007.09;;;2.28;100.00
40592;BME280;26301;42.832;23.918;2024-03-06T04:59:20;93005.34;;;2.28;100.00
40592;BME280;26301;42.832;23.918;2024-03-06T05:01:45;93007.69;;;1.95;100.00
40592;BME280;26301;42.832;23.918;2024-03-06T05:04:11;93020.25;;;1.97;100.00
40592;BME280;26301;42.832;23.918;2024-03-06T05:06:37;93015.59;;;1.79;100.00
40592;BME280;26301;42.832;23.918;2024-03-06T05:09:03;93022.47;;;1.78;100.00
40592;BME280;26301;42.832;23.918;2024-03-06T05:11:29;93014.34;;;1.68;100.00
40592;BME280;26301;42.832;23.918;2024-03-06T05:13:57;92993.66;;;1.56;100.00
40592;BME280;26301;42.832;23.918;2024-03-06T05:16:23;93012.97;;;1.66;100.00
40592;BME280;26301;42.832;23.918;2024-03-06T05:18:49;93007.56;;;1.75;100.00
40592;BME280;26301;42.832;23.918;2024-03-06T05:21:15;93007.19;;;1.78;100.00
40592;BME280;26301;42.832;23.918;2024-03-06T05:23:41;93026.91;;;1.98;100.00
40592;BME280;26301;42.832;23.918;2024-03-06T05:26:06;93006.13;;;1.94;100.00
40592;BME280;26301;42.832;23.918;2024-03-06T05:28:32;93022.88;;;2.10;100.00
40592;BME280;26301;42.832;23.918;2024-03-06T05:30:58;93022.75;;;2.18;100.00
40592;BME280;26301;42.832;23.918;2024-03-06T05:33:23;92978.88;;;1.95;100.00
40592;BME280;26301;42.832;23.918;2024-03-06T05:35:49;93017.25;;;2.21;100.00
40592;BME280;26301;42.832;23.918;2024-03-06T05:38:14;92996.81;;;2.08;100.00
40592;BME280;26301;42.832;23.918;2024-03-06T05:40:40;93018.53;;;2.32;100.00
40592;BME280;26301;42.832;23.918;2024-03-06T05:43:09;93012.81;;;2.30;100.00
40592;BME280;26301;42.832;23.918;2024-03-06T05:45:34;93018.56;;;2.45;100.00
40592;BME280;26301;42.832;23.918;2024-03-06T05:47:59;93017.59;;;2.46;100.00
40592;BME280;26301;42.832;23.918;2024-03-06T05:50:25;93031.22;;;2.60;100.00
40592;BME280;26301;42.832;23.918;2024-03-06T05:52:50;93023.03;;;2.71;100.00
40592;BME280;26301;42.832;23.918;2024-03-06T05:55:16;93027.94;;;2.80;100.00
40592;BME280;26301;42.832;23.918;2024-03-06T05:57:41;93030.56;;;2.93;100.00
40592;BME280;26301;42.832;23.918;2024-03-06T06:00:11;93014.66;;;2.97;100.00
40592;BME280;26301;42.832;23.918;2024-03-06T06:02:37;93035.72;;;3.13;100.00
40592;BME280;26301;42.832;23.918;2024-03-06T06:05:03;93025.88;;;3.10;100.00
40592;BME280;26301;42.832;23.918;2024-03-06T06:07:29;93039.88;;;3.27;100.00
40592;BME280;26301;42.832;23.918;2024-03-06T06:09:54;93040.88;;;3.33;100.00
40592;BME280;26301;42.832;23.918;2024-03-06T06:12:20;93043.28;;;3.48;100.00
40592;BME280;26301;42.832;23.918;2024-03-06T06:14:45;93038.00;;;3.49;100.00
40592;BME280;26301;42.832;23.918;2024-03-06T06:17:11;93036.59;;;3.53;100.00
40592;BME280;26301;42.832;23.918;2024-03-06T06:19:38;93044.50;;;3.72;100.00
40592;BME280;26301;42.832;23.918;2024-03-06T06:22:03;93046.66;;;3.81;100.00
40592;BME280;26301;42.832;23.918;2024-03-06T06:24:29;93048.03;;;3.84;100.00
40592;BME280;26301;42.832;23.918;2024-03-06T06:26:55;93027.97;;;3.74;100.00
40592;BME280;26301;42.832;23.918;2024-03-06T06:29:20;93025.81;;;3.84;100.00
40592;BME280;26301;42.832;23.918;2024-03-06T06:31:45;93052.16;;;4.11;100.00
40592;BME280;26301;42.832;23.918;2024-03-06T06:34:11;93047.22;;;4.23;100.00
40592;BME280;26301;42.832;23.918;2024-03-06T06:36:37;93054.91;;;4.37;100.00
40592;BME280;26301;42.832;23.918;2024-03-06T06:39:03;93035.03;;;4.32;100.00
40592;BME280;26301;42.832;23.918;2024-03-06T06:41:31;93060.78;;;4.50;100.00
40592;BME280;26301;42.832;23.918;2024-03-06T06:43:56;93067.25;;;4.59;100.00
40592;BME280;26301;42.832;23.918;2024-03-06T06:46:22;93063.72;;;4.61;100.00
40592;BME280;26301;42.832;23.918;2024-03-06T06:48:47;93060.53;;;4.78;100.00
40592;BME280;26301;42.832;23.918;2024-03-06T06:51:14;93057.56;;;4.81;100.00
40592;BME280;26301;42.832;23.918;2024-03-06T06:53:40;93048.84;;;4.96;100.00
40592;BME280;26301;42.832;23.918;2024-03-06T06:56:07;93051.56;;;5.08;100.00
40592;BME280;26301;42.832;23.918;2024-03-06T06:58:33;93051.19;;;5.04;100.00
40592;BME280;26301;42.832;23.918;2024-03-06T07:00:58;93066.06;;;5.20;100.00
40592;BME280;26301;42.832;23.918;2024-03-06T07:03:25;93063.88;;;5.31;100.00
40592;BME280;26301;42.832;23.918;2024-03-06T07:05:55;93057.75;;;5.32;100.00
40592;BME280;26301;42.832;23.918;2024-03-06T07:08:21;93057.53;;;5.40;100.00
40592;BME280;26301;42.832;23.918;2024-03-06T07:10:48;93071.22;;;5.59;100.00
40592;BME280;26301;42.832;23.918;2024-03-06T07:13:13;93068.59;;;5.72;100.00
40592;BME280;26301;42.832;23.918;2024-03-06T07:15:39;93062.78;;;5.83;100.00
40592;BME280;26301;42.832;23.918;2024-03-06T07:18:04;93061.75;;;5.91;100.00
40592;BME280;26301;42.832;23.918;2024-03-06T07:20:30;93059.50;;;6.08;100.00
40592;BME280;26301;42.832;23.918;2024-03-06T07:22:57;93035.84;;;6.06;100.00
40592;BME280;26301;42.832;23.918;2024-03-06T07:25:23;93055.78;;;6.29;100.00
40592;BME280;26301;42.832;23.918;2024-03-06T07:27:48;93043.25;;;6.39;100.00
40592;BME280;26301;42.832;23.918;2024-03-06T07:30:14;93035.75;;;6.37;100.00
40592;BME280;26301;42.832;23.918;2024-03-06T07:32:39;93047.47;;;6.52;100.00
40592;BME280;26301;42.832;23.918;2024-03-06T07:35:06;93062.53;;;6.67;98.06
40592;BME280;26301;42.832;23.918;2024-03-06T07:37:32;93050.13;;;6.82;98.12
40592;BME280;26301;42.832;23.918;2024-03-06T07:39:58;93058.84;;;6.99;98.24
40592;BME280;26301;42.832;23.918;2024-03-06T07:42:25;93051.47;;;7.03;95.20
40592;BME280;26301;42.832;23.918;2024-03-06T07:44:51;93053.41;;;7.26;96.98
40592;BME280;26301;42.832;23.918;2024-03-06T07:47:16;93056.38;;;7.41;94.53
40592;BME280;26301;42.832;23.918;2024-03-06T07:49:42;93039.19;;;7.53;95.25
40592;BME280;26301;42.832;23.918;2024-03-06T07:52:10;93037.16;;;7.74;89.20
40592;BME280;26301;42.832;23.918;2024-03-06T07:54:35;93042.78;;;7.94;87.76
40592;BME280;26301;42.832;23.918;2024-03-06T07:57:01;93037.97;;;7.98;86.25
40592;BME280;26301;42.832;23.918;2024-03-06T07:59:27;93040.03;;;8.19;78.94
40592;BME280;26301;42.832;23.918;2024-03-06T08:01:52;93051.59;;;8.40;80.52
40592;BME280;26301;42.832;23.918;2024-03-06T08:04:18;93013.41;;;8.37;76.31
40592;BME280;26301;42.832;23.918;2024-03-06T08:06:43;93059.97;;;8.71;76.59
40592;BME280;26301;42.832;23.918;2024-03-06T08:09:09;93047.75;;;8.78;83.56
40592;BME280;26301;42.832;23.918;2024-03-06T08:11:35;93056.81;;;9.04;74.88
40592;BME280;26301;42.832;23.918;2024-03-06T08:14:00;93037.84;;;9.10;81.77
40592;BME280;26301;42.832;23.918;2024-03-06T08:16:29;93061.44;;;9.31;71.43
40592;BME280;26301;42.832;23.918;2024-03-06T08:18:55;93048.63;;;9.48;69.68
40592;BME280;26301;42.832;23.918;2024-03-06T08:21:21;93047.78;;;9.59;69.15
40592;BME280;26301;42.832;23.918;2024-03-06T08:23:48;93038.66;;;9.68;76.06
40592;BME280;26301;42.832;23.918;2024-03-06T08:26:14;93055.41;;;9.82;68.06
40592;BME280;26301;42.832;23.918;2024-03-06T08:28:40;93056.50;;;9.87;69.54
40592;BME280;26301;42.832;23.918;2024-03-06T08:31:05;93053.31;;;9.79;73.73
40592;BME280;26301;42.832;23.918;2024-03-06T08:33:31;93058.09;;;9.88;80.18
40592;BME280;26301;42.832;23.918;2024-03-06T08:35:56;93062.94;;;9.84;80.04
40592;BME280;26301;42.832;23.918;2024-03-06T08:38:23;93047.59;;;9.77;79.89
40592;BME280;26301;42.832;23.918;2024-03-06T08:40:48;93056.34;;;9.76;81.69
40592;BME280;26301;42.832;23.918;2024-03-06T08:43:14;93069.50;;;9.92;81.63
40592;BME280;26301;42.832;23.918;2024-03-06T08:45:41;93071.72;;;10.00;84.10
40592;BME280;26301;42.832;23.918;2024-03-06T08:48:06;93066.16;;;9.91;82.89
40592;BME280;26301;42.832;23.918;2024-03-06T08:50:32;93066.47;;;9.95;81.34
40592;BME280;26301;42.832;23.918;2024-03-06T08:52:57;93069.50;;;9.92;82.48
40592;BME280;26301;42.832;23.918;2024-03-06T08:55:23;93074.81;;;9.85;81.22
40592;BME280;26301;42.832;23.918;2024-03-06T08:57:48;93070.94;;;9.71;83.23
40592;BME280;26301;42.832;23.918;2024-03-06T09:00:16;93071.72;;;9.71;84.14
40592;BME280;26301;42.832;23.918;2024-03-06T09:02:43;93086.72;;;9.74;82.25
40592;BME280;26301;42.832;23.918;2024-03-06T09:05:09;93077.44;;;9.73;83.07
40592;BME280;26301;42.832;23.918;2024-03-06T09:07:40;93074.53;;;9.70;82.15
40592;BME280;26301;42.832;23.918;2024-03-06T09:10:10;93079.38;;;9.66;81.91
40592;BME280;26301;42.832;23.918;2024-03-06T09:12:36;93075.88;;;9.72;82.12
40592;BME280;26301;42.832;23.918;2024-03-06T09:15:03;93065.72;;;9.82;87.28
40592;BME280;26301;42.832;23.918;2024-03-06T09:17:29;93079.31;;;10.06;87.16
40592;BME280;26301;42.832;23.918;2024-03-06T09:19:55;93068.44;;;10.21;83.50
40592;BME280;26301;42.832;23.918;2024-03-06T09:22:21;93059.16;;;10.20;81.02
40592;BME280;26301;42.832;23.918;2024-03-06T09:24:46;93075.28;;;10.44;79.41
40592;BME280;26301;42.832;23.918;2024-03-06T09:27:14;93062.91;;;10.46;79.47
40592;BME280;26301;42.832;23.918;2024-03-06T09:29:39;93076.84;;;10.62;80.59
40592;BME280;26301;42.832;23.918;2024-03-06T09:32:05;93055.56;;;10.55;79.42
40592;BME280;26301;42.832;23.918;2024-03-06T09:34:30;93064.53;;;10.69;76.44
40592;BME280;26301;42.832;23.918;2024-03-06T09:36:56;93074.31;;;10.84;76.18
40592;BME280;26301;42.832;23.918;2024-03-06T09:39:21;93066.09;;;10.87;78.42
40592;BME280;26301;42.832;23.918;2024-03-06T09:41:50;93072.31;;;11.08;81.48
40592;BME280;26301;42.832;23.918;2024-03-06T09:44:17;93077.38;;;11.20;80.60
40592;BME280;26301;42.832;23.918;2024-03-06T09:46:44;93073.88;;;11.31;71.73
40592;BME280;26301;42.832;23.918;2024-03-06T09:49:14;93078.06;;;11.15;70.26
40592;BME280;26301;42.832;23.918;2024-03-06T09:51:43;93053.66;;;11.06;65.64
40592;BME280;26301;42.832;23.918;2024-03-06T09:54:14;93087.56;;;11.10;66.14
40592;BME280;26301;42.832;23.918;2024-03-06T09:56:43;93077.66;;;10.85;65.00
40592;BME280;26301;42.832;23.918;2024-03-06T09:59:09;93066.53;;;10.62;63.73
40592;BME280;26301;42.832;23.918;2024-03-06T10:01:39;93075.53;;;10.60;64.52
40592;BME280;26301;42.832;23.918;2024-03-06T10:04:25;93093.44;;;10.83;65.08
40592;BME280;26301;42.832;23.918;2024-03-06T10:06:59;93086.69;;;10.82;62.48
40592;BME280;26301;42.832;23.918;2024-03-06T10:09:26;93090.75;;;10.78;59.69
40592;BME280;26301;42.832;23.918;2024-03-06T10:11:52;93093.91;;;10.63;61.73
40592;BME280;26301;42.832;23.918;2024-03-06T10:14:19;93080.59;;;10.55;63.41
40592;BME280;26301;42.832;23.918;2024-03-06T10:17:00;93086.53;;;10.55;63.69
40592;BME280;26301;42.832;23.918;2024-03-06T10:19:28;93084.22;;;10.53;62.38
40592;BME280;26301;42.832;23.918;2024-03-06T10:21:55;93086.53;;;10.55;62.47
40592;BME280;26301;42.832;23.918;2024-03-06T10:24:27;93085.91;;;10.65;64.12
40592;BME280;26301;42.832;23.918;2024-03-06T10:26:57;93086.84;;;10.75;63.99
40592;BME280;26301;42.832;23.918;2024-03-06T10:29:24;93084.34;;;10.81;65.71
40592;BME280;26301;42.832;23.918;2024-03-06T10:31:58;93070.41;;;10.82;62.25
40592;BME280;26301;42.832;23.918;2024-03-06T10:34:27;93060.94;;;10.70;63.67
40592;BME280;26301;42.832;23.918;2024-03-06T10:36:58;93079.00;;;10.87;63.45
40592;BME280;26301;42.832;23.918;2024-03-06T10:39:24;93071.31;;;10.92;59.78
40592;BME280;26301;42.832;23.918;2024-03-06T10:41:52;93063.16;;;11.01;64.52
40592;BME280;26301;42.832;23.918;2024-03-06T10:44:29;93061.66;;;11.05;62.38
40592;BME280;26301;42.832;23.918;2024-03-06T10:46:59;93057.50;;;11.04;63.66
40592;BME280;26301;42.832;23.918;2024-03-06T10:49:32;93069.44;;;11.27;63.65
40592;BME280;26301;42.832;23.918;2024-03-06T10:52:02;93057.56;;;11.31;61.92
40592;BME280;26301;42.832;23.918;2024-03-06T10:54:36;93065.50;;;11.46;59.51
40592;BME280;26301;42.832;23.918;2024-03-06T10:57:08;93040.00;;;11.33;61.16
40592;BME280;26301;42.832;23.918;2024-03-06T10:59:35;93044.00;;;11.40;60.31
40592;BME280;26301;42.832;23.918;2024-03-06T11:02:02;93052.41;;;11.53;60.72
40592;BME280;26301;42.832;23.918;2024-03-06T11:04:29;93053.88;;;11.49;61.04
40592;BME280;26301;42.832;23.918;2024-03-06T11:06:56;93031.00;;;11.35;61.42
40592;BME280;26301;42.832;23.918;2024-03-06T11:09:28;93046.91;;;11.49;61.07
40592;BME280;26301;42.832;23.918;2024-03-06T11:11:54;93029.28;;;11.46;59.13
40592;BME280;26301;42.832;23.918;2024-03-06T11:14:21;93019.91;;;11.62;61.26
40592;BME280;26301;42.832;23.918;2024-03-06T11:19:30;93032.00;;;11.83;58.45
40592;BME280;26301;42.832;23.918;2024-03-06T11:21:56;93030.63;;;11.76;57.65
40592;BME280;26301;42.832;23.918;2024-03-06T11:24:32;93026.91;;;11.66;56.83
40592;BME280;26301;42.832;23.918;2024-03-06T11:27:03;93024.53;;;11.60;56.52
40592;BME280;26301;42.832;23.918;2024-03-06T11:33:01;92999.63;;;11.54;60.15
40592;BME280;26301;42.832;23.918;2024-03-06T11:35:29;93013.78;;;11.73;56.86
40592;BME280;26301;42.832;23.918;2024-03-06T11:37:55;92996.41;;;11.68;58.99
40592;BME280;26301;42.832;23.918;2024-03-06T11:40:24;93008.16;;;11.81;58.52
40592;BME280;26301;42.832;23.918;2024-03-06T11:42:50;93008.53;;;11.90;56.16
40592;BME280;26301;42.832;23.918;2024-03-06T11:45:16;93012.34;;;11.82;56.58
40592;BME280;26301;42.832;23.918;2024-03-06T11:48:02;93013.72;;;11.90;58.18
40592;BME280;26301;42.832;23.918;2024-03-06T11:50:28;93008.72;;;11.83;57.18
40592;BME280;26301;42.832;23.918;2024-03-06T11:52:54;93001.69;;;11.79;58.34
40592;BME280;26301;42.832;23.918;2024-03-06T11:55:26;93002.00;;;11.55;58.29
40592;BME280;26301;42.832;23.918;2024-03-06T11:57:52;93005.72;;;11.70;54.84
40592;BME280;26301;42.832;23.918;2024-03-06T12:00:22;93000.56;;;11.70;57.22
40592;BME280;26301;42.832;23.918;2024-03-06T12:02:48;92996.41;;;11.68;60.33
40592;BME280;26301;42.832;23.918;2024-03-06T12:05:13;92996.00;;;11.82;54.73
40592;BME280;26301;42.832;23.918;2024-03-06T12:07:49;92993.19;;;11.83;57.43
40592;BME280;26301;42.832;23.918;2024-03-06T12:10:16;92982.50;;;11.75;54.40
40592;BME280;26301;42.832;23.918;2024-03-06T12:12:42;92978.16;;;11.53;55.57
40592;BME280;26301;42.832;23.918;2024-03-06T12:15:13;92973.44;;;11.45;59.60
40592;BME280;26301;42.832;23.918;2024-03-06T12:17:46;92969.97;;;11.61;57.81
40592;BME280;26301;42.832;23.918;2024-03-06T12:20:13;92988.25;;;11.82;56.44
40592;BME280;26301;42.832;23.918;2024-03-06T12:22:51;92981.47;;;11.76;53.88
40592;BME280;26301;42.832;23.918;2024-03-06T12:25:21;92977.28;;;11.70;55.74
40592;BME280;26301;42.832;23.918;2024-03-06T12:27:47;92978.50;;;11.62;54.76
40592;BME280;26301;42.832;23.918;2024-03-06T12:30:17;92963.13;;;11.50;54.68
40592;BME280;26301;42.832;23.918;2024-03-06T12:33:04;92976.75;;;11.67;55.13
40592;BME280;26301;42.832;23.918;2024-03-06T12:35:30;92970.59;;;11.74;56.85
40592;BME280;26301;42.832;23.918;2024-03-06T12:37:56;92973.69;;;11.76;58.31
40592;BME280;26301;42.832;23.918;2024-03-06T12:40:22;92967.06;;;11.85;59.58
40592;BME280;26301;42.832;23.918;2024-03-06T12:42:48;92965.38;;;11.96;57.08
40592;BME280;26301;42.832;23.918;2024-03-06T12:45:15;92964.81;;;11.88;59.27
40592;BME280;26301;42.832;23.918;2024-03-06T12:47:42;92967.19;;;12.00;60.21
40592;BME280;26301;42.832;23.918;2024-03-06T12:50:09;92971.94;;;12.08;57.80
40592;BME280;26301;42.832;23.918;2024-03-06T12:52:36;92965.66;;;11.99;58.49
40592;BME280;26301;42.832;23.918;2024-03-06T12:55:02;92973.56;;;11.87;57.86